sensor_id;sensor_type;location;lat;lon;timestamp;P1;durP1;ratioP1;P2;durP2;ratioP2
37645;SDS011;23489;49.600;6.138;2022-10-16T00:01:47;2.50;;;2.30;;
37645;SDS011;23489;49.600;6.138;2022-10-16T00:04:13;3.13;;;2.30;;
37645;SDS011;23489;49.600;6.138;2022-10-16T00:06:39;3.90;;;2.50;;
37645;SDS011;23489;49.600;6.138;2022-10-16T00:09:05;3.25;;;2.22;;
37645;SDS011;23489;49.600;6.138;2022-10-16T00:11:34;3.75;;;2.33;;
37645;SDS011;23489;49.600;6.138;2022-10-16T00:14:02;4.55;;;2.50;;
37645;SDS011;23489;49.600;6.138;2022-10-16T00:16:30;3.22;;;2.38;;
37645;SDS011;23489;49.600;6.138;2022-10-16T00:18:57;2.90;;;2.60;;
37645;SDS011;23489;49.600;6.138;2022-10-16T00:21:24;3.37;;;2.53;;
37645;SDS011;23489;49.600;6.138;2022-10-16T00:23:56;3.40;;;2.50;;
37645;SDS011;23489;49.600;6.138;2022-10-16T00:26:24;4.47;;;2.80;;
37645;SDS011;23489;49.600;6.138;2022-10-16T00:28:51;3.47;;;2.90;;
37645;SDS011;23489;49.600;6.138;2022-10-16T00:31:18;6.22;;;3.00;;
37645;SDS011;23489;49.600;6.138;2022-10-16T00:33:45;4.10;;;3.08;;
37645;SDS011;23489;49.600;6.138;2022-10-16T00:36:11;2.83;;;2.53;;
37645;SDS011;23489;49.600;6.138;2022-10-16T00:38:39;4.68;;;2.70;;
37645;SDS011;23489;49.600;6.138;2022-10-16T00:41:06;3.80;;;2.80;;
37645;SDS011;23489;49.600;6.138;2022-10-16T00:46:02;3.92;;;2.80;;
37645;SDS011;23489;49.600;6.138;2022-10-16T00:48:29;3.00;;;2.70;;
37645;SDS011;23489;49.600;6.138;2022-10-16T00:50:56;4.00;;;2.60;;
37645;SDS011;23489;49.600;6.138;2022-10-16T00:53:23;2.90;;;2.30;;
37645;SDS011;23489;49.600;6.138;2022-10-16T00:55:50;2.67;;;1.90;;
37645;SDS011;23489;49.600;6.138;2022-10-16T00:58:16;2.95;;;1.80;;
37645;SDS011;23489;49.600;6.138;2022-10-16T01:00:42;3.47;;;1.73;;
37645;SDS011;23489;49.600;6.138;2022-10-16T01:05:57;3.83;;;1.63;;
37645;SDS011;23489;49.600;6.138;2022-10-16T01:08:32;2.55;;;1.60;;
37645;SDS011;23489;49.600;6.138;2022-10-16T01:11:12;3.75;;;1.80;;
37645;SDS011;23489;49.600;6.138;2022-10-16T01:13:48;1.98;;;1.77;;
37645;SDS011;23489;49.600;6.138;2022-10-16T01:16:45;2.10;;;1.70;;
37645;SDS011;23489;49.600;6.138;2022-10-16T01:22:27;2.20;;;1.40;;
37645;SDS011;23489;49.600;6.138;2022-10-16T01:25:15;1.50;;;1.20;;
37645;SDS011;23489;49.600;6.138;2022-10-16T01:27:48;1.30;;;1.20;;
37645;SDS011;23489;49.600;6.138;2022-10-16T01:30:21;1.30;;;1.20;;
37645;SDS011;23489;49.600;6.138;2022-10-16T01:32:58;2.50;;;1.10;;
37645;SDS011;23489;49.600;6.138;2022-10-16T01:38:17;1.20;;;1.10;;
37645;SDS011;23489;49.600;6.138;2022-10-16T01:40:52;2.37;;;1.50;;
37645;SDS011;23489;49.600;6.138;2022-10-16T01:43:28;2.65;;;1.10;;
37645;SDS011;23489;49.600;6.138;2022-10-16T01:46:01;1.70;;;1.27;;
37645;SDS011;23489;49.600;6.138;2022-10-16T01:48:27;2.75;;;1.50;;
37645;SDS011;23489;49.600;6.138;2022-10-16T01:50:58;2.35;;;1.40;;
37645;SDS011;23489;49.600;6.138;2022-10-16T01:53:34;1.33;;;1.23;;
37645;SDS011;23489;49.600;6.138;2022-10-16T01:56:01;1.80;;;1.40;;
37645;SDS011;23489;49.600;6.138;2022-10-16T01:58:30;1.90;;;1.27;;
37645;SDS011;23489;49.600;6.138;2022-10-16T02:00:59;1.40;;;1.20;;
37645;SDS011;23489;49.600;6.138;2022-10-16T02:03:27;2.22;;;1.30;;
37645;SDS011;23489;49.600;6.138;2022-10-16T02:05:54;2.97;;;1.40;;
37645;SDS011;23489;49.600;6.138;2022-10-16T02:08:22;2.72;;;1.30;;
37645;SDS011;23489;49.600;6.138;2022-10-16T02:10:49;2.00;;;1.10;;
37645;SDS011;23489;49.600;6.138;2022-10-16T02:13:17;1.83;;;0.90;;
37645;SDS011;23489;49.600;6.138;2022-10-16T02:15:47;1.27;;;1.00;;
37645;SDS011;23489;49.600;6.138;2022-10-16T02:18:12;2.65;;;0.95;;
37645;SDS011;23489;49.600;6.138;2022-10-16T02:20:48;1.10;;;0.90;;
37645;SDS011;23489;49.600;6.138;2022-10-16T02:23:33;1.10;;;0.90;;
37645;SDS011;23489;49.600;6.138;2022-10-16T02:26:11;2.00;;;0.80;;
37645;SDS011;23489;49.600;6.138;2022-10-16T02:28:52;2.17;;;1.02;;
37645;SDS011;23489;49.600;6.138;2022-10-16T02:31:23;1.02;;;0.90;;
37645;SDS011;23489;49.600;6.138;2022-10-16T02:33:53;0.90;;;0.90;;
37645;SDS011;23489;49.600;6.138;2022-10-16T02:36:21;1.10;;;0.90;;
37645;SDS011;23489;49.600;6.138;2022-10-16T02:38:48;1.87;;;1.00;;
37645;SDS011;23489;49.600;6.138;2022-10-16T02:41:14;2.60;;;0.93;;
37645;SDS011;23489;49.600;6.138;2022-10-16T02:43:40;1.27;;;1.13;;
37645;SDS011;23489;49.600;6.138;2022-10-16T02:46:05;1.53;;;0.90;;
37645;SDS011;23489;49.600;6.138;2022-10-16T02:48:31;1.50;;;1.20;;
37645;SDS011;23489;49.600;6.138;2022-10-16T02:50:57;1.05;;;0.90;;
37645;SDS011;23489;49.600;6.138;2022-10-16T02:53:22;1.67;;;1.00;;
37645;SDS011;23489;49.600;6.138;2022-10-16T02:55:48;1.47;;;0.97;;
37645;SDS011;23489;49.600;6.138;2022-10-16T02:58:14;1.08;;;0.80;;
37645;SDS011;23489;49.600;6.138;2022-10-16T03:00:39;1.57;;;0.90;;
37645;SDS011;23489;49.600;6.138;2022-10-16T03:03:05;1.00;;;0.90;;
37645;SDS011;23489;49.600;6.138;2022-10-16T03:05:30;1.65;;;1.15;;
37645;SDS011;23489;49.600;6.138;2022-10-16T03:07:56;0.98;;;0.82;;
37645;SDS011;23489;49.600;6.138;2022-10-16T03:10:25;1.80;;;1.20;;
37645;SDS011;23489;49.600;6.138;2022-10-16T03:12:50;2.27;;;1.10;;
37645;SDS011;23489;49.600;6.138;2022-10-16T03:15:16;1.40;;;1.15;;
37645;SDS011;23489;49.600;6.138;2022-10-16T03:17:42;2.00;;;1.20;;
37645;SDS011;23489;49.600;6.138;2022-10-16T03:20:08;1.08;;;1.00;;
37645;SDS011;23489;49.600;6.138;2022-10-16T03:22:34;1.20;;;1.00;;
37645;SDS011;23489;49.600;6.138;2022-10-16T03:25:00;1.40;;;1.13;;
37645;SDS011;23489;49.600;6.138;2022-10-16T03:27:25;1.45;;;1.10;;
37645;SDS011;23489;49.600;6.138;2022-10-16T03:29:51;2.20;;;1.00;;
37645;SDS011;23489;49.600;6.138;2022-10-16T03:32:17;1.73;;;1.20;;
37645;SDS011;23489;49.600;6.138;2022-10-16T03:34:43;1.80;;;1.10;;
37645;SDS011;23489;49.600;6.138;2022-10-16T03:37:09;1.50;;;1.23;;
37645;SDS011;23489;49.600;6.138;2022-10-16T03:39:34;1.35;;;1.10;;
37645;SDS011;23489;49.600;6.138;2022-10-16T03:42:00;1.88;;;1.10;;
37645;SDS011;23489;49.600;6.138;2022-10-16T03:44:26;5.20;;;1.50;;
37645;SDS011;23489;49.600;6.138;2022-10-16T03:46:51;1.50;;;1.20;;
37645;SDS011;23489;49.600;6.138;2022-10-16T03:49:17;2.65;;;1.33;;
37645;SDS011;23489;49.600;6.138;2022-10-16T03:51:43;1.90;;;1.20;;
37645;SDS011;23489;49.600;6.138;2022-10-16T03:54:09;1.93;;;1.30;;
37645;SDS011;23489;49.600;6.138;2022-10-16T03:56:35;1.92;;;1.33;;
37645;SDS011;23489;49.600;6.138;2022-10-16T03:59:00;1.90;;;1.40;;
37645;SDS011;23489;49.600;6.138;2022-10-16T04:01:26;3.60;;;1.30;;
37645;SDS011;23489;49.600;6.138;2022-10-16T04:03:52;2.17;;;1.30;;
37645;SDS011;23489;49.600;6.138;2022-10-16T04:06:17;3.05;;;1.50;;
37645;SDS011;23489;49.600;6.138;2022-10-16T04:08:43;2.90;;;1.40;;
37645;SDS011;23489;49.600;6.138;2022-10-16T04:11:09;1.88;;;1.40;;
37645;SDS011;23489;49.600;6.138;2022-10-16T04:13:34;1.88;;;1.30;;
37645;SDS011;23489;49.600;6.138;2022-10-16T04:16:01;2.55;;;1.23;;
37645;SDS011;23489;49.600;6.138;2022-10-16T04:18:27;2.70;;;1.33;;
37645;SDS011;23489;49.600;6.138;2022-10-16T04:20:53;3.13;;;1.30;;
37645;SDS011;23489;49.600;6.138;2022-10-16T04:23:19;1.92;;;1.30;;
37645;SDS011;23489;49.600;6.138;2022-10-16T04:25:44;3.73;;;1.57;;
37645;SDS011;23489;49.600;6.138;2022-10-16T04:28:10;2.22;;;1.77;;
37645;SDS011;23489;49.600;6.138;2022-10-16T04:30:37;2.42;;;1.58;;
37645;SDS011;23489;49.600;6.138;2022-10-16T04:33:03;2.78;;;1.73;;
37645;SDS011;23489;49.600;6.138;2022-10-16T04:35:29;2.67;;;1.80;;
37645;SDS011;23489;49.600;6.138;2022-10-16T04:37:56;3.10;;;1.67;;
37645;SDS011;23489;49.600;6.138;2022-10-16T04:40:23;3.67;;;1.92;;
37645;SDS011;23489;49.600;6.138;2022-10-16T04:42:49;3.03;;;2.00;;
37645;SDS011;23489;49.600;6.138;2022-10-16T04:45:14;4.50;;;2.10;;
37645;SDS011;23489;49.600;6.138;2022-10-16T04:47:40;4.65;;;2.10;;
37645;SDS011;23489;49.600;6.138;2022-10-16T04:50:06;3.60;;;2.00;;
37645;SDS011;23489;49.600;6.138;2022-10-16T04:52:32;1.93;;;1.70;;
37645;SDS011;23489;49.600;6.138;2022-10-16T04:54:58;1.85;;;1.67;;
37645;SDS011;23489;49.600;6.138;2022-10-16T04:57:27;2.88;;;1.85;;
37645;SDS011;23489;49.600;6.138;2022-10-16T04:59:53;3.78;;;1.67;;
37645;SDS011;23489;49.600;6.138;2022-10-16T05:02:19;2.47;;;1.77;;
37645;SDS011;23489;49.600;6.138;2022-10-16T05:04:44;2.33;;;1.90;;
37645;SDS011;23489;49.600;6.138;2022-10-16T05:07:10;4.50;;;2.10;;
37645;SDS011;23489;49.600;6.138;2022-10-16T05:09:36;4.33;;;2.17;;
37645;SDS011;23489;49.600;6.138;2022-10-16T05:12:01;3.22;;;2.30;;
37645;SDS011;23489;49.600;6.138;2022-10-16T05:14:28;4.00;;;2.58;;
37645;SDS011;23489;49.600;6.138;2022-10-16T05:16:54;4.15;;;2.40;;
37645;SDS011;23489;49.600;6.138;2022-10-16T05:19:20;3.70;;;2.90;;
37645;SDS011;23489;49.600;6.138;2022-10-16T05:21:45;3.53;;;2.80;;
37645;SDS011;23489;49.600;6.138;2022-10-16T05:24:11;3.33;;;2.70;;
37645;SDS011;23489;49.600;6.138;2022-10-16T05:26:37;4.72;;;2.75;;
37645;SDS011;23489;49.600;6.138;2022-10-16T05:29:02;5.30;;;3.00;;
37645;SDS011;23489;49.600;6.138;2022-10-16T05:31:28;2.97;;;2.58;;
37645;SDS011;23489;49.600;6.138;2022-10-16T05:33:58;6.60;;;3.10;;
37645;SDS011;23489;49.600;6.138;2022-10-16T05:36:24;7.03;;;3.00;;
37645;SDS011;23489;49.600;6.138;2022-10-16T05:38:50;4.43;;;3.28;;
37645;SDS011;23489;49.600;6.138;2022-10-16T05:41:16;5.50;;;3.00;;
37645;SDS011;23489;49.600;6.138;2022-10-16T05:43:46;5.40;;;3.00;;
37645;SDS011;23489;49.600;6.138;2022-10-16T05:46:12;4.30;;;2.90;;
37645;SDS011;23489;49.600;6.138;2022-10-16T05:48:38;3.50;;;2.87;;
37645;SDS011;23489;49.600;6.138;2022-10-16T05:51:05;4.15;;;3.10;;
37645;SDS011;23489;49.600;6.138;2022-10-16T05:53:32;4.03;;;2.83;;
37645;SDS011;23489;49.600;6.138;2022-10-16T05:55:59;5.50;;;3.07;;
37645;SDS011;23489;49.600;6.138;2022-10-16T05:58:33;5.35;;;2.92;;
37645;SDS011;23489;49.600;6.138;2022-10-16T06:01:08;3.58;;;2.90;;
37645;SDS011;23489;49.600;6.138;2022-10-16T06:03:39;5.57;;;3.15;;
37645;SDS011;23489;49.600;6.138;2022-10-16T06:06:12;4.17;;;2.70;;
37645;SDS011;23489;49.600;6.138;2022-10-16T06:08:39;4.32;;;2.83;;
37645;SDS011;23489;49.600;6.138;2022-10-16T06:11:07;4.20;;;2.92;;
37645;SDS011;23489;49.600;6.138;2022-10-16T06:13:34;5.00;;;3.10;;
37645;SDS011;23489;49.600;6.138;2022-10-16T06:16:00;4.72;;;3.70;;
37645;SDS011;23489;49.600;6.138;2022-10-16T06:18:27;5.50;;;4.65;;
37645;SDS011;23489;49.600;6.138;2022-10-16T06:20:54;5.63;;;4.93;;
37645;SDS011;23489;49.600;6.138;2022-10-16T06:23:20;5.60;;;5.00;;
37645;SDS011;23489;49.600;6.138;2022-10-16T06:25:46;5.75;;;5.07;;
37645;SDS011;23489;49.600;6.138;2022-10-16T06:28:13;5.87;;;5.23;;
37645;SDS011;23489;49.600;6.138;2022-10-16T06:30:39;7.03;;;5.70;;
37645;SDS011;23489;49.600;6.138;2022-10-16T06:33:05;7.18;;;5.45;;
37645;SDS011;23489;49.600;6.138;2022-10-16T06:35:30;6.35;;;5.72;;
37645;SDS011;23489;49.600;6.138;2022-10-16T06:37:57;6.78;;;6.18;;
37645;SDS011;23489;49.600;6.138;2022-10-16T06:40:23;6.10;;;5.50;;
37645;SDS011;23489;49.600;6.138;2022-10-16T06:42:49;5.75;;;5.25;;
37645;SDS011;23489;49.600;6.138;2022-10-16T06:45:16;7.10;;;5.50;;
37645;SDS011;23489;49.600;6.138;2022-10-16T06:47:42;6.63;;;5.75;;
37645;SDS011;23489;49.600;6.138;2022-10-16T06:50:08;6.22;;;5.60;;
37645;SDS011;23489;49.600;6.138;2022-10-16T06:52:33;6.27;;;5.67;;
37645;SDS011;23489;49.600;6.138;2022-10-16T06:54:59;6.78;;;6.05;;
37645;SDS011;23489;49.600;6.138;2022-10-16T06:57:25;7.50;;;5.80;;
37645;SDS011;23489;49.600;6.138;2022-10-16T06:59:51;7.07;;;5.68;;
37645;SDS011;23489;49.600;6.138;2022-10-16T07:02:16;6.57;;;5.90;;
37645;SDS011;23489;49.600;6.138;2022-10-16T07:04:42;6.50;;;5.37;;
37645;SDS011;23489;49.600;6.138;2022-10-16T07:07:08;6.57;;;5.38;;
37645;SDS011;23489;49.600;6.138;2022-10-16T07:09:33;4.85;;;4.35;;
37645;SDS011;23489;49.600;6.138;2022-10-16T07:11:59;6.80;;;4.90;;
37645;SDS011;23489;49.600;6.138;2022-10-16T07:14:24;6.17;;;4.80;;
37645;SDS011;23489;49.600;6.138;2022-10-16T07:16:50;5.60;;;4.13;;
37645;SDS011;23489;49.600;6.138;2022-10-16T07:19:16;5.47;;;3.85;;
37645;SDS011;23489;49.600;6.138;2022-10-16T07:21:43;4.22;;;3.72;;
37645;SDS011;23489;49.600;6.138;2022-10-16T07:24:16;3.80;;;3.37;;
37645;SDS011;23489;49.600;6.138;2022-10-16T07:26:42;4.30;;;3.30;;
37645;SDS011;23489;49.600;6.138;2022-10-16T07:29:16;4.50;;;3.30;;
37645;SDS011;23489;49.600;6.138;2022-10-16T07:31:43;3.50;;;2.75;;
37645;SDS011;23489;49.600;6.138;2022-10-16T07:34:10;3.55;;;3.10;;
37645;SDS011;23489;49.600;6.138;2022-10-16T07:36:37;4.07;;;3.03;;
37645;SDS011;23489;49.600;6.138;2022-10-16T07:39:03;3.20;;;2.90;;
37645;SDS011;23489;49.600;6.138;2022-10-16T07:41:29;4.72;;;3.40;;
37645;SDS011;23489;49.600;6.138;2022-10-16T07:43:57;3.38;;;2.92;;
37645;SDS011;23489;49.600;6.138;2022-10-16T07:46:25;3.83;;;2.97;;
37645;SDS011;23489;49.600;6.138;2022-10-16T07:48:52;4.07;;;3.10;;
37645;SDS011;23489;49.600;6.138;2022-10-16T07:51:19;3.40;;;2.90;;
37645;SDS011;23489;49.600;6.138;2022-10-16T07:53:46;3.70;;;3.40;;
37645;SDS011;23489;49.600;6.138;2022-10-16T07:56:13;4.60;;;3.05;;
37645;SDS011;23489;49.600;6.138;2022-10-16T07:58:39;4.82;;;3.38;;
37645;SDS011;23489;49.600;6.138;2022-10-16T08:01:05;3.73;;;3.30;;
37645;SDS011;23489;49.600;6.138;2022-10-16T08:03:33;4.50;;;3.80;;
37645;SDS011;23489;49.600;6.138;2022-10-16T08:05:59;4.83;;;4.30;;
37645;SDS011;23489;49.600;6.138;2022-10-16T08:08:26;5.57;;;4.30;;
37645;SDS011;23489;49.600;6.138;2022-10-16T08:10:52;5.90;;;4.40;;
37645;SDS011;23489;49.600;6.138;2022-10-16T08:13:18;6.32;;;4.32;;
37645;SDS011;23489;49.600;6.138;2022-10-16T08:15:44;5.60;;;4.17;;
37645;SDS011;23489;49.600;6.138;2022-10-16T08:18:11;4.72;;;4.22;;
37645;SDS011;23489;49.600;6.138;2022-10-16T08:20:38;4.85;;;3.85;;
37645;SDS011;23489;49.600;6.138;2022-10-16T08:23:05;4.65;;;4.15;;
37645;SDS011;23489;49.600;6.138;2022-10-16T08:25:33;5.43;;;4.10;;
37645;SDS011;23489;49.600;6.138;2022-10-16T08:28:00;5.88;;;4.50;;
37645;SDS011;23489;49.600;6.138;2022-10-16T08:30:28;8.90;;;4.67;;
37645;SDS011;23489;49.600;6.138;2022-10-16T08:32:53;5.20;;;4.35;;
37645;SDS011;23489;49.600;6.138;2022-10-16T08:35:19;5.03;;;4.10;;
37645;SDS011;23489;49.600;6.138;2022-10-16T08:37:44;5.83;;;4.73;;
37645;SDS011;23489;49.600;6.138;2022-10-16T08:40:16;6.00;;;5.20;;
37645;SDS011;23489;49.600;6.138;2022-10-16T08:50:45;3.95;;;3.38;;
37645;SDS011;23489;49.600;6.138;2022-10-16T08:53:15;4.93;;;3.20;;
37645;SDS011;23489;49.600;6.138;2022-10-16T08:55:56;3.50;;;3.20;;
37645;SDS011;23489;49.600;6.138;2022-10-16T08:58:27;4.88;;;3.45;;
37645;SDS011;23489;49.600;6.138;2022-10-16T09:00:56;4.30;;;3.10;;
37645;SDS011;23489;49.600;6.138;2022-10-16T09:03:38;7.05;;;4.05;;
37645;SDS011;23489;49.600;6.138;2022-10-16T09:08:46;5.57;;;3.70;;
37645;SDS011;23489;49.600;6.138;2022-10-16T09:11:48;5.57;;;4.38;;
37645;SDS011;23489;49.600;6.138;2022-10-16T09:14:28;5.32;;;4.60;;
37645;SDS011;23489;49.600;6.138;2022-10-16T09:17:15;3.75;;;3.35;;
37645;SDS011;23489;49.600;6.138;2022-10-16T09:25:30;2.73;;;2.23;;
37645;SDS011;23489;49.600;6.138;2022-10-16T09:27:57;4.97;;;3.63;;
37645;SDS011;23489;49.600;6.138;2022-10-16T09:30:23;3.07;;;2.10;;
37645;SDS011;23489;49.600;6.138;2022-10-16T09:32:54;2.65;;;2.25;;
37645;SDS011;23489;49.600;6.138;2022-10-16T09:35:25;2.90;;;2.10;;
37645;SDS011;23489;49.600;6.138;2022-10-16T09:37:56;1.83;;;1.60;;
37645;SDS011;23489;49.600;6.138;2022-10-16T09:40:30;2.35;;;1.45;;
37645;SDS011;23489;49.600;6.138;2022-10-16T09:48:57;2.87;;;2.60;;
37645;SDS011;23489;49.600;6.138;2022-10-16T09:51:43;2.58;;;2.00;;
37645;SDS011;23489;49.600;6.138;2022-10-16T09:56:35;2.77;;;2.30;;
37645;SDS011;23489;49.600;6.138;2022-10-16T09:59:22;3.00;;;2.50;;
37645;SDS011;23489;49.600;6.138;2022-10-16T10:01:56;1.55;;;1.45;;
37645;SDS011;23489;49.600;6.138;2022-10-16T10:04:36;2.20;;;1.77;;
37645;SDS011;23489;49.600;6.138;2022-10-16T10:07:16;2.05;;;1.80;;
37645;SDS011;23489;49.600;6.138;2022-10-16T10:09:45;3.15;;;2.10;;
37645;SDS011;23489;49.600;6.138;2022-10-16T10:12:17;3.58;;;2.30;;
37645;SDS011;23489;49.600;6.138;2022-10-16T10:14:47;4.18;;;3.00;;
37645;SDS011;23489;49.600;6.138;2022-10-16T10:17:22;3.28;;;2.58;;
37645;SDS011;23489;49.600;6.138;2022-10-16T10:19:53;3.13;;;2.40;;
37645;SDS011;23489;49.600;6.138;2022-10-16T10:22:40;5.65;;;3.85;;
37645;SDS011;23489;49.600;6.138;2022-10-16T10:41:32;5.00;;;3.30;;
37645;SDS011;23489;49.600;6.138;2022-10-16T10:49:47;3.97;;;2.60;;
37645;SDS011;23489;49.600;6.138;2022-10-16T10:55:31;4.18;;;2.80;;
37645;SDS011;23489;49.600;6.138;2022-10-16T11:06:19;3.80;;;2.60;;
37645;SDS011;23489;49.600;6.138;2022-10-16T16:46:06;8.43;;;4.60;;
37645;SDS011;23489;49.600;6.138;2022-10-16T16:48:32;9.13;;;6.67;;
37645;SDS011;23489;49.600;6.138;2022-10-16T16:51:05;9.65;;;7.43;;
37645;SDS011;23489;49.600;6.138;2022-10-16T16:53:35;9.73;;;6.55;;
37645;SDS011;23489;49.600;6.138;2022-10-16T16:56:04;8.45;;;5.95;;
37645;SDS011;23489;49.600;6.138;2022-10-16T16:58:31;9.93;;;6.03;;
37645;SDS011;23489;49.600;6.138;2022-10-16T17:00:57;9.80;;;6.00;;
37645;SDS011;23489;49.600;6.138;2022-10-16T17:03:29;9.70;;;6.43;;
37645;SDS011;23489;49.600;6.138;2022-10-16T17:05:56;7.60;;;5.47;;
37645;SDS011;23489;49.600;6.138;2022-10-16T17:08:26;8.85;;;6.15;;
37645;SDS011;23489;49.600;6.138;2022-10-16T17:10:52;8.57;;;6.20;;
37645;SDS011;23489;49.600;6.138;2022-10-16T17:13:23;8.23;;;6.53;;
37645;SDS011;23489;49.600;6.138;2022-10-16T17:15:49;9.25;;;6.75;;
37645;SDS011;23489;49.600;6.138;2022-10-16T17:18:15;13.52;;;6.72;;
37645;SDS011;23489;49.600;6.138;2022-10-16T17:20:42;11.80;;;6.70;;
37645;SDS011;23489;49.600;6.138;2022-10-16T17:23:08;9.30;;;7.07;;
37645;SDS011;23489;49.600;6.138;2022-10-16T17:25:35;10.40;;;8.52;;
37645;SDS011;23489;49.600;6.138;2022-10-16T17:28:01;13.50;;;9.15;;
37645;SDS011;23489;49.600;6.138;2022-10-16T17:30:27;11.50;;;9.20;;
37645;SDS011;23489;49.600;6.138;2022-10-16T17:32:53;10.38;;;8.73;;
37645;SDS011;23489;49.600;6.138;2022-10-16T17:35:18;13.97;;;9.07;;
37645;SDS011;23489;49.600;6.138;2022-10-16T17:37:44;12.60;;;8.63;;
37645;SDS011;23489;49.600;6.138;2022-10-16T17:40:10;9.88;;;8.75;;
37645;SDS011;23489;49.600;6.138;2022-10-16T17:42:36;10.13;;;7.53;;
37645;SDS011;23489;49.600;6.138;2022-10-16T17:45:01;10.45;;;7.90;;
37645;SDS011;23489;49.600;6.138;2022-10-16T17:47:27;8.82;;;7.93;;
37645;SDS011;23489;49.600;6.138;2022-10-16T17:49:53;9.18;;;8.23;;
37645;SDS011;23489;49.600;6.138;2022-10-16T17:52:19;11.40;;;8.53;;
37645;SDS011;23489;49.600;6.138;2022-10-16T17:54:45;11.38;;;8.40;;
37645;SDS011;23489;49.600;6.138;2022-10-16T17:57:11;9.33;;;8.17;;
37645;SDS011;23489;49.600;6.138;2022-10-16T17:59:36;11.90;;;8.53;;
37645;SDS011;23489;49.600;6.138;2022-10-16T18:02:02;11.40;;;8.55;;
37645;SDS011;23489;49.600;6.138;2022-10-16T18:04:28;9.63;;;8.33;;
37645;SDS011;23489;49.600;6.138;2022-10-16T18:06:53;12.90;;;8.57;;
37645;SDS011;23489;49.600;6.138;2022-10-16T18:09:20;11.55;;;8.32;;
37645;SDS011;23489;49.600;6.138;2022-10-16T18:11:46;10.48;;;7.93;;
37645;SDS011;23489;49.600;6.138;2022-10-16T18:14:13;11.25;;;8.63;;
37645;SDS011;23489;49.600;6.138;2022-10-16T18:16:40;12.95;;;8.30;;
37645;SDS011;23489;49.600;6.138;2022-10-16T18:19:08;10.60;;;8.23;;
37645;SDS011;23489;49.600;6.138;2022-10-16T18:21:35;13.85;;;8.50;;
37645;SDS011;23489;49.600;6.138;2022-10-16T18:24:01;12.07;;;7.90;;
37645;SDS011;23489;49.600;6.138;2022-10-16T18:26:26;11.97;;;8.20;;
37645;SDS011;23489;49.600;6.138;2022-10-16T18:28:53;10.27;;;7.78;;
37645;SDS011;23489;49.600;6.138;2022-10-16T18:31:20;10.40;;;7.85;;
37645;SDS011;23489;49.600;6.138;2022-10-16T18:33:47;10.55;;;7.78;;
37645;SDS011;23489;49.600;6.138;2022-10-16T18:36:15;8.85;;;7.30;;
37645;SDS011;23489;49.600;6.138;2022-10-16T18:38:42;10.25;;;7.25;;
37645;SDS011;23489;49.600;6.138;2022-10-16T18:41:08;11.98;;;7.25;;
37645;SDS011;23489;49.600;6.138;2022-10-16T18:43:35;10.75;;;7.10;;
37645;SDS011;23489;49.600;6.138;2022-10-16T18:46:04;9.87;;;6.93;;
37645;SDS011;23489;49.600;6.138;2022-10-16T18:48:43;7.88;;;6.65;;
37645;SDS011;23489;49.600;6.138;2022-10-16T18:51:30;10.02;;;6.72;;
37645;SDS011;23489;49.600;6.138;2022-10-16T18:53:58;11.32;;;6.80;;
37645;SDS011;23489;49.600;6.138;2022-10-16T18:56:27;10.60;;;7.37;;
37645;SDS011;23489;49.600;6.138;2022-10-16T18:58:54;13.32;;;7.00;;
37645;SDS011;23489;49.600;6.138;2022-10-16T19:01:23;10.00;;;7.15;;
37645;SDS011;23489;49.600;6.138;2022-10-16T19:03:57;9.15;;;6.60;;
37645;SDS011;23489;49.600;6.138;2022-10-16T19:09:00;10.05;;;6.95;;
37645;SDS011;23489;49.600;6.138;2022-10-16T19:11:26;11.60;;;7.60;;
37645;SDS011;23489;49.600;6.138;2022-10-16T19:13:52;9.07;;;7.30;;
37645;SDS011;23489;49.600;6.138;2022-10-16T19:16:25;7.93;;;6.63;;
37645;SDS011;23489;49.600;6.138;2022-10-16T19:18:54;10.25;;;7.38;;
37645;SDS011;23489;49.600;6.138;2022-10-16T19:21:21;11.50;;;7.63;;
37645;SDS011;23489;49.600;6.138;2022-10-16T19:23:52;10.60;;;7.73;;
37645;SDS011;23489;49.600;6.138;2022-10-16T19:26:22;9.88;;;7.35;;
37645;SDS011;23489;49.600;6.138;2022-10-16T19:28:49;10.27;;;7.40;;
37645;SDS011;23489;49.600;6.138;2022-10-16T19:31:16;10.17;;;8.03;;
37645;SDS011;23489;49.600;6.138;2022-10-16T19:33:44;9.35;;;7.28;;
37645;SDS011;23489;49.600;6.138;2022-10-16T19:36:15;12.32;;;7.90;;
37645;SDS011;23489;49.600;6.138;2022-10-16T19:38:43;10.87;;;7.63;;
37645;SDS011;23489;49.600;6.138;2022-10-16T19:41:11;11.95;;;7.90;;
37645;SDS011;23489;49.600;6.138;2022-10-16T19:43:38;8.77;;;7.57;;
37645;SDS011;23489;49.600;6.138;2022-10-16T19:46:05;12.30;;;7.50;;
37645;SDS011;23489;49.600;6.138;2022-10-16T19:48:33;11.20;;;7.78;;
37645;SDS011;23489;49.600;6.138;2022-10-16T19:50:59;12.38;;;7.78;;
37645;SDS011;23489;49.600;6.138;2022-10-16T19:53:25;11.50;;;7.95;;
37645;SDS011;23489;49.600;6.138;2022-10-16T19:55:54;13.18;;;8.55;;
37645;SDS011;23489;49.600;6.138;2022-10-16T19:58:21;12.93;;;8.43;;
37645;SDS011;23489;49.600;6.138;2022-10-16T20:00:47;12.52;;;8.35;;
37645;SDS011;23489;49.600;6.138;2022-10-16T20:03:14;10.35;;;7.90;;
37645;SDS011;23489;49.600;6.138;2022-10-16T20:05:48;10.33;;;8.10;;
37645;SDS011;23489;49.600;6.138;2022-10-16T20:08:15;9.00;;;7.90;;
37645;SDS011;23489;49.600;6.138;2022-10-16T20:10:46;13.40;;;8.13;;
37645;SDS011;23489;49.600;6.138;2022-10-16T20:13:16;11.55;;;8.63;;
37645;SDS011;23489;49.600;6.138;2022-10-16T20:15:42;10.32;;;9.18;;
37645;SDS011;23489;49.600;6.138;2022-10-16T20:18:07;12.00;;;9.70;;
37645;SDS011;23489;49.600;6.138;2022-10-16T20:20:37;11.57;;;8.38;;
37645;SDS011;23489;49.600;6.138;2022-10-16T20:23:03;12.27;;;8.57;;
37645;SDS011;23489;49.600;6.138;2022-10-16T20:25:29;11.63;;;8.63;;
37645;SDS011;23489;49.600;6.138;2022-10-16T20:28:02;9.93;;;8.60;;
37645;SDS011;23489;49.600;6.138;2022-10-16T20:30:32;11.60;;;8.50;;
37645;SDS011;23489;49.600;6.138;2022-10-16T20:32:59;10.70;;;8.55;;
37645;SDS011;23489;49.600;6.138;2022-10-16T20:35:24;12.88;;;9.63;;
37645;SDS011;23489;49.600;6.138;2022-10-16T20:37:50;15.57;;;8.93;;
37645;SDS011;23489;49.600;6.138;2022-10-16T20:40:16;11.50;;;8.30;;
37645;SDS011;23489;49.600;6.138;2022-10-16T20:42:41;11.10;;;8.90;;
37645;SDS011;23489;49.600;6.138;2022-10-16T20:45:07;10.57;;;8.48;;
37645;SDS011;23489;49.600;6.138;2022-10-16T20:47:33;9.60;;;8.20;;
37645;SDS011;23489;49.600;6.138;2022-10-16T20:49:59;13.02;;;8.73;;
37645;SDS011;23489;49.600;6.138;2022-10-16T20:52:24;9.57;;;8.55;;
37645;SDS011;23489;49.600;6.138;2022-10-16T20:54:50;13.40;;;8.10;;
37645;SDS011;23489;49.600;6.138;2022-10-16T20:57:16;10.18;;;8.13;;
37645;SDS011;23489;49.600;6.138;2022-10-16T20:59:42;10.87;;;8.83;;
37645;SDS011;23489;49.600;6.138;2022-10-16T21:02:08;13.50;;;8.77;;
37645;SDS011;23489;49.600;6.138;2022-10-16T21:04:36;10.97;;;8.27;;
37645;SDS011;23489;49.600;6.138;2022-10-16T21:07:01;12.52;;;9.00;;
37645;SDS011;23489;49.600;6.138;2022-10-16T21:09:27;12.80;;;8.80;;
37645;SDS011;23489;49.600;6.138;2022-10-16T21:11:53;11.13;;;8.60;;
37645;SDS011;23489;49.600;6.138;2022-10-16T21:14:19;12.35;;;8.68;;
37645;SDS011;23489;49.600;6.138;2022-10-16T21:16:46;12.55;;;9.35;;
37645;SDS011;23489;49.600;6.138;2022-10-16T21:19:11;12.48;;;9.60;;
37645;SDS011;23489;49.600;6.138;2022-10-16T21:21:37;11.07;;;8.63;;
37645;SDS011;23489;49.600;6.138;2022-10-16T21:24:03;12.30;;;8.25;;
37645;SDS011;23489;49.600;6.138;2022-10-16T21:26:30;12.07;;;8.82;;
37645;SDS011;23489;49.600;6.138;2022-10-16T21:29:03;10.93;;;8.55;;
37645;SDS011;23489;49.600;6.138;2022-10-16T21:31:30;10.17;;;7.70;;
37645;SDS011;23489;49.600;6.138;2022-10-16T21:33:56;10.27;;;8.35;;
37645;SDS011;23489;49.600;6.138;2022-10-16T21:36:26;12.60;;;7.93;;
37645;SDS011;23489;49.600;6.138;2022-10-16T21:38:53;10.52;;;8.13;;
37645;SDS011;23489;49.600;6.138;2022-10-16T21:41:21;12.77;;;8.60;;